createdAt,value
2019-05-23T00:01:48.356Z,10.13
2019-05-23T00:06:52.061Z,11.33
2019-05-23T00:11:57.537Z,10.73
2019-05-23T00:17:02.286Z,11.57
2019-05-23T00:22:08.124Z,11.73
2019-05-23T00:27:14.012Z,10.40
2019-05-23T00:32:37.586Z,13.27
2019-05-23T00:37:43.116Z,12.57
2019-05-23T00:42:46.791Z,12.70
2019-05-23T00:47:51.788Z,12.00
2019-05-23T00:52:56.769Z,11.53
2019-05-23T00:58:01.450Z,11.13
2019-05-23T01:03:05.318Z,11.63
2019-05-23T01:08:09.005Z,16.63
2019-05-23T01:13:15.230Z,13.67
2019-05-23T01:18:19.013Z,12.40
2019-05-23T01:23:24.620Z,14.37
2019-05-23T01:28:28.004Z,12.17
2019-05-23T01:33:33.226Z,14.30
2019-05-23T01:38:38.197Z,13.13
2019-05-23T01:43:42.200Z,13.23
2019-05-23T01:48:46.763Z,15.27
2019-05-23T01:53:51.055Z,12.90
2019-05-23T01:58:55.125Z,18.07
2019-05-23T02:03:58.922Z,14.50
2019-05-23T02:09:02.836Z,15.33
2019-05-23T02:14:08.023Z,15.70
2019-05-23T02:19:13.655Z,14.07
2019-05-23T02:24:17.203Z,14.60
2019-05-23T02:29:21.578Z,14.87
2019-05-23T02:34:25.442Z,14.33
2019-05-23T02:39:45.263Z,13.87
2019-05-23T02:44:50.349Z,16.13
2019-05-23T02:49:55.710Z,13.77
2019-05-23T02:54:59.578Z,17.73
2019-05-23T03:00:53.410Z,14.80
2019-05-23T03:05:50.053Z,15.63
2019-05-23T03:11:01.347Z,18.13
2019-05-23T03:16:05.966Z,16.17
2019-05-23T03:21:09.615Z,16.70
2019-05-23T03:26:19.313Z,16.10
2019-05-23T03:31:30.711Z,16.83
2019-05-23T03:36:31.429Z,18.07
2019-05-23T03:41:35.320Z,17.87
2019-05-23T03:46:40.454Z,16.17
2019-05-23T03:51:44.866Z,16.77
2019-05-23T03:56:49.122Z,15.20
2019-05-23T04:01:55.059Z,21.47
2019-05-23T04:06:59.719Z,15.67
2019-05-23T04:12:03.339Z,16.10
2019-05-23T04:17:07.695Z,16.20
2019-05-23T04:22:11.296Z,15.50
2019-05-23T04:27:14.859Z,15.07
2019-05-23T04:32:18.400Z,18.07
2019-05-23T04:37:21.837Z,17.70
2019-05-23T04:42:25.469Z,16.60
2019-05-23T04:47:28.961Z,16.57
2019-05-23T04:52:33.255Z,28.77
2019-05-23T04:57:37.641Z,34.50
2019-05-23T05:02:41.422Z,26.43
2019-05-23T05:07:45.412Z,31.03
2019-05-23T05:12:49.138Z,23.47
2019-05-23T05:17:52.849Z,22.87
2019-05-23T05:22:57.128Z,22.07
2019-05-23T05:28:01.102Z,23.03
2019-05-23T05:33:05.600Z,34.13
2019-05-23T05:38:09.325Z,22.93
2019-05-23T05:43:13.128Z,26.13
2019-05-23T05:48:16.632Z,23.00
2019-05-23T05:53:20.074Z,25.27
2019-05-23T05:58:23.509Z,27.10
2019-05-23T06:03:27.347Z,22.43
2019-05-23T06:08:32.508Z,25.77
2019-05-23T06:13:36.193Z,20.97
2019-05-23T06:18:39.704Z,23.00
2019-05-23T06:23:43.866Z,25.30
2019-05-23T06:28:47.313Z,24.07
2019-05-23T06:33:51.641Z,24.20
2019-05-23T06:38:56.308Z,25.80
2019-05-23T06:43:59.769Z,26.07
2019-05-23T06:49:03.215Z,28.40
2019-05-23T06:54:06.634Z,27.73
2019-05-23T06:59:10.426Z,26.73
2019-05-23T07:04:14.010Z,28.10
2019-05-23T07:09:19.368Z,29.40
2019-05-23T07:14:22.802Z,27.97
2019-05-23T07:19:26.308Z,24.40
2019-05-23T07:24:29.902Z,24.07
2019-05-23T07:29:34.763Z,26.00
2019-05-23T07:34:38.201Z,27.37
2019-05-23T07:39:42.119Z,23.03
2019-05-23T07:44:48.622Z,24.37
2019-05-23T07:49:52.212Z,19.57
2019-05-23T07:54:57.300Z,22.00
2019-05-23T08:00:01.811Z,25.23
2019-05-23T08:05:08.512Z,19.57
2019-05-23T08:10:12.603Z,24.87
2019-05-23T08:15:18.422Z,14.93
2019-05-23T08:20:22.665Z,17.50
2019-05-23T08:25:26.565Z,16.40
2019-05-23T08:30:30.337Z,16.63
2019-05-23T08:35:33.876Z,16.27
2019-05-23T08:40:37.875Z,15.90
2019-05-23T08:45:41.398Z,16.53
2019-05-23T08:50:45.211Z,17.80
2019-05-23T08:55:49.888Z,19.07
2019-05-23T09:00:54.155Z,19.13
2019-05-23T09:05:57.850Z,21.17
2019-05-23T09:11:01.468Z,17.77
2019-05-23T09:16:05.106Z,20.23
2019-05-23T09:21:08.728Z,21.00
2019-05-23T09:26:12.734Z,22.43
2019-05-23T09:31:16.611Z,19.40
2019-05-23T09:36:20.564Z,15.83
2019-05-23T09:41:24.074Z,20.27
2019-05-23T09:46:27.517Z,20.27
2019-05-23T09:51:31.028Z,12.93
2019-05-23T09:56:34.542Z,19.77
2019-05-23T10:01:38.053Z,15.97
2019-05-23T10:06:41.722Z,14.00
2019-05-23T10:11:45.255Z,9.00
2019-05-23T10:16:49.168Z,10.33
2019-05-23T10:21:52.658Z,9.13
2019-05-23T10:26:56.088Z,10.43
2019-05-23T10:31:59.697Z,9.27
2019-05-23T10:37:04.786Z,8.23
2019-05-23T10:42:08.274Z,6.90
2019-05-23T10:47:11.685Z,7.80
2019-05-23T10:52:15.109Z,10.13
2019-05-23T10:57:18.653Z,6.07
2019-05-23T11:02:22.216Z,9.47
2019-05-23T11:07:25.645Z,7.97
2019-05-23T11:12:29.382Z,8.77
2019-05-23T11:17:33.202Z,7.30
2019-05-23T11:22:36.992Z,13.07
2019-05-23T11:27:40.678Z,7.07
2019-05-23T11:32:44.241Z,6.47
2019-05-23T11:37:47.676Z,10.30
2019-05-23T11:42:52.734Z,8.90
2019-05-23T11:47:57.674Z,8.13
2019-05-23T11:53:01.180Z,6.77
2019-05-23T11:58:04.982Z,5.97
2019-05-23T12:03:08.459Z,5.37
2019-05-23T12:08:11.988Z,7.67
2019-05-23T12:13:15.512Z,5.17
2019-05-23T12:18:19.120Z,6.80
2019-05-23T12:23:22.600Z,5.30
2019-05-23T12:28:26.363Z,5.93
2019-05-23T12:33:29.862Z,6.87
2019-05-23T12:38:33.462Z,6.17
2019-05-23T12:43:36.914Z,6.80
2019-05-23T12:48:42.037Z,5.43
2019-05-23T12:53:46.130Z,5.93
2019-05-23T12:58:49.699Z,6.60
2019-05-23T13:03:53.644Z,5.10
2019-05-23T13:08:57.144Z,7.07
2019-05-23T13:14:00.586Z,7.13
2019-05-23T13:19:04.391Z,5.97
2019-05-23T13:24:08.019Z,7.87
2019-05-23T13:29:11.893Z,5.93
2019-05-23T13:34:15.384Z,6.20
2019-05-23T13:39:20.524Z,8.67
2019-05-23T13:44:33.436Z,6.10
2019-05-23T13:49:29.194Z,6.00
2019-05-23T13:54:36.263Z,8.13
2019-05-23T13:59:38.836Z,5.03
2019-05-23T14:04:42.450Z,9.00
2019-05-23T14:09:46.112Z,8.40
2019-05-23T14:14:49.684Z,6.60
2019-05-23T14:19:53.179Z,7.77
2019-05-23T14:24:56.617Z,10.00
2019-05-23T14:30:10.942Z,8.13
2019-05-23T14:35:06.506Z,7.87
2019-05-23T14:40:11.420Z,7.47
2019-05-23T14:45:34.235Z,5.83
2019-05-23T14:50:55.609Z,8.20
2019-05-23T14:55:59.264Z,7.37
2019-05-23T15:01:04.551Z,6.57
2019-05-23T15:06:08.080Z,4.13
2019-05-23T15:11:11.510Z,5.93
2019-05-23T15:16:16.410Z,4.87
2019-05-23T15:21:19.897Z,4.70
2019-05-23T15:26:24.197Z,12.00
2019-05-23T15:31:28.345Z,7.73
2019-05-23T15:36:31.777Z,5.67
2019-05-23T15:41:35.202Z,9.83
2019-05-23T15:46:38.635Z,6.03
2019-05-23T15:51:44.102Z,5.93
2019-05-23T15:56:51.933Z,6.43
2019-05-23T16:02:13.082Z,5.97
2019-05-23T16:07:17.375Z,6.90
2019-05-23T16:12:21.239Z,7.13
2019-05-23T16:17:25.075Z,7.87
2019-05-23T16:22:28.862Z,6.90
2019-05-23T16:27:32.505Z,9.30
2019-05-23T16:32:35.911Z,8.87
2019-05-23T16:37:39.356Z,9.37
2019-05-23T16:42:42.791Z,7.43
2019-05-23T16:47:46.281Z,6.77
2019-05-23T16:52:49.841Z,7.77
2019-05-23T16:57:57.675Z,7.37
2019-05-23T17:03:02.806Z,7.20
2019-05-23T17:08:07.878Z,6.37
2019-05-23T17:13:18.853Z,7.97
2019-05-23T17:18:23.981Z,6.47
2019-05-23T17:23:46.974Z,7.77
2019-05-23T17:28:52.060Z,7.43
2019-05-23T17:33:55.503Z,8.70
2019-05-23T17:38:58.986Z,9.17
2019-05-23T17:44:02.492Z,8.10
2019-05-23T17:49:06.758Z,8.70
2019-05-23T17:54:10.927Z,7.37
2019-05-23T17:59:14.429Z,5.67
2019-05-23T18:04:18.666Z,6.77
2019-05-23T18:09:22.298Z,6.73
2019-05-23T18:14:26.036Z,19.37
2019-05-23T18:19:30.311Z,13.67
2019-05-23T18:24:35.956Z,10.80
2019-05-23T18:29:39.410Z,14.40
2019-05-23T18:34:44.580Z,5.87
2019-05-23T18:39:49.195Z,5.80
2019-05-23T18:44:52.818Z,6.83
2019-05-23T18:49:57.265Z,8.63
2019-05-23T18:55:01.481Z,7.50
2019-05-23T19:00:06.904Z,8.50
2019-05-23T19:05:12.510Z,8.87
2019-05-23T19:10:16.673Z,8.03
2019-05-23T19:15:20.423Z,8.30
2019-05-23T19:20:23.929Z,14.40
2019-05-23T19:25:27.440Z,7.53
2019-05-23T19:30:31.310Z,9.67
2019-05-23T19:35:34.787Z,8.77
2019-05-23T19:40:39.615Z,9.30
2019-05-23T19:45:43.990Z,11.93
2019-05-23T19:50:47.823Z,9.57
2019-05-23T19:55:51.507Z,14.27
2019-05-23T20:00:55.887Z,9.57
2019-05-23T20:06:00.104Z,10.83
2019-05-23T20:11:03.522Z,9.40
2019-05-23T20:16:07.660Z,11.00
2019-05-23T20:21:11.443Z,11.40
2019-05-23T20:26:14.861Z,11.50
2019-05-23T20:31:18.509Z,11.53
2019-05-23T20:36:22.264Z,10.63
2019-05-23T20:41:25.838Z,10.63
2019-05-23T20:46:29.413Z,9.93
2019-05-23T20:51:33.160Z,14.17
2019-05-23T20:56:36.587Z,11.23
2019-05-23T21:01:41.284Z,12.37
2019-05-23T21:06:44.822Z,12.33
2019-05-23T21:11:48.345Z,13.97
2019-05-23T21:16:51.848Z,15.20
2019-05-23T21:21:55.344Z,14.23
2019-05-23T21:26:59.570Z,15.33
2019-05-23T21:32:03.028Z,16.90
2019-05-23T21:37:06.612Z,14.03
2019-05-23T21:42:10.105Z,16.47
2019-05-23T21:47:13.610Z,13.13
2019-05-23T21:52:17.369Z,12.93
2019-05-23T21:57:20.814Z,13.60
2019-05-23T22:02:28.582Z,14.43
2019-05-23T22:07:32.372Z,18.80
2019-05-23T22:12:35.800Z,12.30
2019-05-23T22:17:40.262Z,14.37
2019-05-23T22:22:43.758Z,12.90
2019-05-23T22:27:47.262Z,12.93
2019-05-23T22:32:50.839Z,14.17
2019-05-23T22:37:54.526Z,12.07
2019-05-23T22:42:58.544Z,16.07
2019-05-23T22:48:02.262Z,12.57
2019-05-23T22:53:05.793Z,12.77
2019-05-23T22:58:09.363Z,12.73
2019-05-23T23:03:12.881Z,12.93
2019-05-23T23:08:17.248Z,12.57
2019-05-23T23:13:36.100Z,13.13
2019-05-23T23:18:25.917Z,12.73
2019-05-23T23:23:29.356Z,14.70
2019-05-23T23:28:33.375Z,14.33
2019-05-23T23:33:36.821Z,12.43
2019-05-23T23:38:40.281Z,12.97
2019-05-23T23:43:57.966Z,10.90
2019-05-23T23:49:06.600Z,13.90
2019-05-23T23:54:27.977Z,11.93
2019-05-23T23:59:30.738Z,12.53
